createdAt,value
2018-12-16T00:00:55.062Z,0.13
2018-12-16T00:01:55.193Z,0.13
2018-12-16T00:02:55.075Z,0.13
2018-12-16T00:03:55.330Z,0.06
2018-12-16T00:04:55.023Z,0.06
2018-12-16T00:05:55.813Z,0.06
2018-12-16T00:06:54.965Z,0.06
2018-12-16T00:07:55.023Z,0.06
2018-12-16T00:08:55.157Z,0.06
2018-12-16T00:09:55.176Z,0.06
2018-12-16T00:10:55.793Z,0.06
2018-12-16T00:11:55.296Z,0.06
2018-12-16T00:12:55.003Z,0.06
2018-12-16T00:13:55.027Z,0
2018-12-16T00:14:55.072Z,0.06
2018-12-16T00:15:54.941Z,0.06
2018-12-16T00:16:55.340Z,0.06
2018-12-16T00:17:54.992Z,0.06
2018-12-16T00:18:55.190Z,0.06
2018-12-16T00:19:55.006Z,0
2018-12-16T00:20:55.157Z,0
2018-12-16T00:21:55.125Z,0
2018-12-16T00:22:55.164Z,0
2018-12-16T00:23:55.104Z,0.06
2018-12-16T00:24:55.248Z,0.06
2018-12-16T00:25:55.714Z,0.06
2018-12-16T00:26:55.132Z,0.06
2018-12-16T00:27:55.130Z,0.06
2018-12-16T00:28:55.000Z,0.06
2018-12-16T00:29:55.108Z,0.06
2018-12-16T00:30:55.218Z,0.06
2018-12-16T00:31:54.992Z,0.06
2018-12-16T00:32:55.132Z,0.06
2018-12-16T00:33:55.192Z,0.06
2018-12-16T00:34:55.113Z,0.06
2018-12-16T00:35:55.330Z,0.06
2018-12-16T00:36:55.100Z,0
2018-12-16T00:37:55.331Z,0
2018-12-16T00:38:55.024Z,0
2018-12-16T00:39:55.174Z,0
2018-12-16T00:40:54.937Z,0
2018-12-16T00:41:55.165Z,0
2018-12-16T00:42:54.997Z,0
2018-12-16T00:43:55.047Z,0
2018-12-16T00:44:55.222Z,0
2018-12-16T00:45:55.034Z,0
2018-12-16T00:46:55.356Z,0
2018-12-16T00:47:54.950Z,0
2018-12-16T00:48:54.960Z,0.06
2018-12-16T00:49:54.904Z,0
2018-12-16T00:50:55.161Z,0
2018-12-16T00:51:54.932Z,0.06
2018-12-16T00:52:54.987Z,0.06
2018-12-16T00:53:54.962Z,0
2018-12-16T00:54:54.900Z,0.06
2018-12-16T00:55:54.920Z,0
2018-12-16T00:56:54.934Z,0.06
2018-12-16T00:57:54.925Z,0
2018-12-16T00:58:55.014Z,0.06
2018-12-16T00:59:55.089Z,0
2018-12-16T01:00:54.913Z,0.06
2018-12-16T01:01:54.987Z,0
2018-12-16T01:02:54.917Z,0
2018-12-16T01:03:55.293Z,0
2018-12-16T01:04:55.175Z,0
2018-12-16T01:05:54.928Z,0
2018-12-16T01:06:55.102Z,0.06
2018-12-16T01:07:54.984Z,0
2018-12-16T01:08:55.255Z,0
2018-12-16T01:09:55.072Z,0
2018-12-16T01:10:55.219Z,0.06
2018-12-16T01:11:54.958Z,0
2018-12-16T01:12:54.928Z,0.06
2018-12-16T01:13:55.244Z,0.06
2018-12-16T01:14:54.891Z,0.06
2018-12-16T01:15:55.254Z,0.06
2018-12-16T01:16:54.902Z,0.06
2018-12-16T01:17:55.350Z,0.13
2018-12-16T01:18:55.256Z,0.13
2018-12-16T01:19:55.291Z,0.13
2018-12-16T01:20:55.372Z,0.13
2018-12-16T01:21:54.938Z,0.06
2018-12-16T01:22:55.115Z,0.13
2018-12-16T01:23:54.922Z,0.13
2018-12-16T01:24:55.100Z,0.13
2018-12-16T01:25:54.866Z,0.13
2018-12-16T01:26:55.198Z,0.06
2018-12-16T01:27:55.274Z,0.06
2018-12-16T01:28:55.296Z,0.06
2018-12-16T01:29:55.215Z,0.06
2018-12-16T01:30:54.966Z,0.13
2018-12-16T01:31:54.891Z,0.13
2018-12-16T01:32:55.528Z,0.06
2018-12-16T01:33:54.920Z,0.06
2018-12-16T01:34:54.914Z,0.13
2018-12-16T01:35:55.073Z,0.13
2018-12-16T01:36:54.956Z,0.13
2018-12-16T01:37:55.048Z,0.06
2018-12-16T01:38:54.902Z,0.06
2018-12-16T01:39:54.910Z,0.06
2018-12-16T01:40:55.138Z,0.13
2018-12-16T01:41:54.887Z,0.06
2018-12-16T01:42:55.143Z,0.06
2018-12-16T01:43:55.369Z,0
2018-12-16T01:44:55.135Z,-0.06
2018-12-16T01:45:55.014Z,-0.06
2018-12-16T01:46:55.080Z,0
2018-12-16T01:47:55.005Z,-0.06
2018-12-16T01:48:55.021Z,0
2018-12-16T01:49:54.925Z,-0.06
2018-12-16T01:50:55.038Z,-0.06
2018-12-16T01:51:55.031Z,-0.06
2018-12-16T01:52:55.037Z,0
2018-12-16T01:53:54.877Z,-0.06
2018-12-16T01:54:54.959Z,-0.06
2018-12-16T01:55:54.911Z,-0.06
2018-12-16T01:56:55.234Z,-0.06
2018-12-16T01:57:54.920Z,-0.06
2018-12-16T01:58:55.141Z,-0.06
2018-12-16T01:59:54.885Z,-0.06
2018-12-16T02:00:54.932Z,-0.06
2018-12-16T02:01:54.834Z,-0.06
2018-12-16T02:02:55.171Z,-0.13
2018-12-16T02:03:54.789Z,-0.06
2018-12-16T02:04:55.292Z,-0.13
2018-12-16T02:05:54.815Z,-0.06
2018-12-16T02:06:54.898Z,-0.06
2018-12-16T02:07:54.914Z,0
2018-12-16T02:08:54.857Z,0
2018-12-16T02:09:54.910Z,0
2018-12-16T02:10:54.811Z,0
2018-12-16T02:11:54.894Z,0
2018-12-16T02:12:55.169Z,0
2018-12-16T02:13:55.052Z,0
2018-12-16T02:14:54.789Z,0
2018-12-16T02:15:54.933Z,0
2018-12-16T02:16:54.838Z,0
2018-12-16T02:17:54.846Z,0
2018-12-16T02:18:54.830Z,-0.06
2018-12-16T02:19:54.951Z,0
2018-12-16T02:20:55.018Z,0
2018-12-16T02:21:54.956Z,0
2018-12-16T02:22:57.506Z,0
2018-12-16T02:23:54.791Z,0
2018-12-16T02:24:55.010Z,0
2018-12-16T02:25:54.884Z,0
2018-12-16T02:26:54.772Z,0
2018-12-16T02:27:54.781Z,0
2018-12-16T02:28:54.818Z,0
2018-12-16T02:29:54.863Z,0.06
2018-12-16T02:30:54.902Z,0
2018-12-16T02:31:54.849Z,0
2018-12-16T02:32:54.916Z,0.06
2018-12-16T02:33:54.790Z,0.06
2018-12-16T02:34:54.764Z,0.06
2018-12-16T02:35:55.123Z,0.13
2018-12-16T02:36:54.846Z,0.13
2018-12-16T02:37:54.833Z,0.13
2018-12-16T02:38:54.806Z,0.06
2018-12-16T02:39:54.798Z,0.13
2018-12-16T02:40:54.808Z,0.06
2018-12-16T02:41:54.894Z,0.06
2018-12-16T02:42:54.905Z,0.06
2018-12-16T02:43:54.827Z,0.13
2018-12-16T02:44:54.821Z,0.06
2018-12-16T02:45:54.972Z,0.06
2018-12-16T02:46:55.018Z,0.06
2018-12-16T02:47:54.987Z,0.06
2018-12-16T02:48:54.847Z,0
2018-12-16T02:49:54.887Z,0.06
2018-12-16T02:50:55.171Z,0
2018-12-16T02:51:54.825Z,0
2018-12-16T02:52:54.810Z,-0.06
2018-12-16T02:53:54.879Z,0
2018-12-16T02:54:54.814Z,0.06
2018-12-16T02:55:54.773Z,0.06
2018-12-16T02:56:54.943Z,0.06
2018-12-16T02:57:54.822Z,0.06
2018-12-16T02:58:54.788Z,0.06
2018-12-16T02:59:54.898Z,0.06
2018-12-16T03:00:54.825Z,0
2018-12-16T03:01:54.852Z,0
2018-12-16T03:02:54.931Z,0
2018-12-16T03:03:55.466Z,0
2018-12-16T03:04:54.744Z,0
2018-12-16T03:05:54.905Z,0.06
2018-12-16T03:06:54.892Z,0
2018-12-16T03:07:55.168Z,0.06
2018-12-16T03:08:54.819Z,0
2018-12-16T03:09:54.801Z,0
2018-12-16T03:10:54.964Z,0
2018-12-16T03:11:54.836Z,0
2018-12-16T03:12:54.730Z,0.06
2018-12-16T03:13:54.758Z,0
2018-12-16T03:14:54.799Z,-0.06
2018-12-16T03:15:54.930Z,0
2018-12-16T03:16:54.718Z,0
2018-12-16T03:17:54.714Z,0.06
2018-12-16T03:18:55.052Z,0.06
2018-12-16T03:19:54.765Z,0
2018-12-16T03:20:55.129Z,-0.06
2018-12-16T03:21:54.931Z,0
2018-12-16T03:22:54.969Z,-0.06
2018-12-16T03:23:54.822Z,0
2018-12-16T03:24:54.849Z,0
2018-12-16T03:25:54.908Z,0
2018-12-16T03:26:54.799Z,0
2018-12-16T03:27:54.774Z,0
2018-12-16T03:28:54.774Z,0.06
2018-12-16T03:29:54.761Z,0.06
2018-12-16T03:30:54.798Z,0.06
2018-12-16T03:31:54.762Z,0.06
2018-12-16T03:32:54.910Z,0.06
2018-12-16T03:33:54.959Z,0.06
2018-12-16T03:34:54.714Z,0.06
2018-12-16T03:35:54.905Z,0
2018-12-16T03:36:54.780Z,0.06
2018-12-16T03:37:54.734Z,0.06
2018-12-16T03:38:54.693Z,0.06
2018-12-16T03:39:54.970Z,0.06
2018-12-16T03:40:54.844Z,0.06
2018-12-16T03:41:55.068Z,0.06
2018-12-16T03:42:54.923Z,0.06
2018-12-16T03:43:54.885Z,0.06
2018-12-16T03:44:54.853Z,0.06
2018-12-16T03:45:55.049Z,0.13
2018-12-16T03:46:54.890Z,0.13
2018-12-16T03:47:54.739Z,0.13
2018-12-16T03:48:54.746Z,0.06
2018-12-16T03:49:54.872Z,0.13
2018-12-16T03:50:54.845Z,0.06
2018-12-16T03:51:54.805Z,0.06
2018-12-16T03:52:54.894Z,0.06
2018-12-16T03:53:54.814Z,0.06
2018-12-16T03:54:54.791Z,0.06
2018-12-16T03:55:54.795Z,0.06
2018-12-16T03:56:54.676Z,0
2018-12-16T03:57:54.728Z,0
2018-12-16T03:58:54.663Z,-0.06
2018-12-16T03:59:54.806Z,0
2018-12-16T04:00:54.852Z,0
2018-12-16T04:01:54.750Z,0
2018-12-16T04:02:54.643Z,-0.06
2018-12-16T04:03:54.695Z,0
2018-12-16T04:04:54.652Z,-0.06
2018-12-16T04:05:54.713Z,0
2018-12-16T04:06:54.599Z,0
2018-12-16T04:07:54.775Z,0
2018-12-16T04:08:54.664Z,0
2018-12-16T04:09:54.722Z,0
2018-12-16T04:10:54.624Z,0
2018-12-16T04:11:54.653Z,0
2018-12-16T04:12:54.658Z,0
2018-12-16T04:13:54.715Z,0
2018-12-16T04:14:54.654Z,-0.06
2018-12-16T04:15:54.817Z,0
2018-12-16T04:16:54.620Z,-0.06
2018-12-16T04:17:54.677Z,0
2018-12-16T04:18:54.615Z,0
2018-12-16T04:19:54.622Z,0
2018-12-16T04:20:54.649Z,-0.06
2018-12-16T04:21:55.465Z,0
2018-12-16T04:22:54.893Z,-0.06
2018-12-16T04:23:54.783Z,0
2018-12-16T04:24:54.795Z,-0.06
2018-12-16T04:25:54.763Z,-0.06
2018-12-16T04:26:55.116Z,-0.13
2018-12-16T04:27:54.789Z,-0.19
2018-12-16T04:28:54.681Z,-0.13
2018-12-16T04:29:54.671Z,-0.19
2018-12-16T04:30:54.811Z,-0.19
2018-12-16T04:31:54.770Z,-0.25
2018-12-16T04:32:54.999Z,-0.19
2018-12-16T04:33:55.455Z,-0.19
2018-12-16T04:34:55.422Z,-0.25
2018-12-16T04:35:54.995Z,-0.25
2018-12-16T04:36:54.783Z,-0.25
2018-12-16T04:37:54.584Z,-0.31
2018-12-16T04:38:54.733Z,-0.25
2018-12-16T04:39:54.692Z,-0.31
2018-12-16T04:40:54.678Z,-0.31
2018-12-16T04:41:54.598Z,-0.31
2018-12-16T04:42:54.816Z,-0.31
2018-12-16T04:43:54.774Z,-0.37
2018-12-16T04:44:54.634Z,-0.31
2018-12-16T04:45:54.650Z,-0.37
2018-12-16T04:46:54.648Z,-0.31
2018-12-16T04:47:54.625Z,-0.31
2018-12-16T04:48:54.629Z,-0.37
2018-12-16T04:49:54.637Z,-0.37
2018-12-16T04:50:54.627Z,-0.37
2018-12-16T04:51:54.574Z,-0.37
2018-12-16T04:52:54.748Z,-0.37
2018-12-16T04:53:54.821Z,-0.37
2018-12-16T04:54:54.805Z,-0.44
2018-12-16T04:55:54.576Z,-0.44
2018-12-16T04:56:54.782Z,-0.44
2018-12-16T04:57:54.658Z,-0.37
2018-12-16T04:58:54.646Z,-0.37
2018-12-16T04:59:54.604Z,-0.44
2018-12-16T05:00:54.798Z,-0.37
2018-12-16T05:01:54.786Z,-0.44
2018-12-16T05:02:54.580Z,-0.37
2018-12-16T05:03:54.653Z,-0.37
2018-12-16T05:04:54.872Z,-0.44
2018-12-16T05:05:54.686Z,-0.44
2018-12-16T05:06:54.687Z,-0.37
2018-12-16T05:07:54.764Z,-0.44
2018-12-16T05:08:54.602Z,-0.44
2018-12-16T05:09:54.585Z,-0.5
2018-12-16T05:10:54.649Z,-0.5
2018-12-16T05:11:54.707Z,-0.44
2018-12-16T05:12:54.658Z,-0.5
2018-12-16T05:13:54.700Z,-0.5
2018-12-16T05:14:54.663Z,-0.5
2018-12-16T05:15:54.619Z,-0.5
2018-12-16T05:16:54.929Z,-0.44
2018-12-16T05:17:54.575Z,-0.44
2018-12-16T05:18:54.623Z,-0.44
2018-12-16T05:19:55.440Z,-0.44
2018-12-16T05:20:54.574Z,-0.44
2018-12-16T05:21:54.905Z,-0.44
2018-12-16T05:22:54.906Z,-0.44
2018-12-16T05:23:54.784Z,-0.5
2018-12-16T05:24:54.728Z,-0.44
2018-12-16T05:25:55.386Z,-0.44
2018-12-16T05:26:54.626Z,-0.5
2018-12-16T05:27:54.710Z,-0.5
2018-12-16T05:28:55.412Z,-0.5
2018-12-16T05:29:59.229Z,-0.44
2018-12-16T05:30:54.707Z,-0.44
2018-12-16T05:31:54.566Z,-0.44
2018-12-16T05:32:54.535Z,-0.44
2018-12-16T05:33:55.340Z,-0.44
2018-12-16T05:34:54.689Z,-0.44
2018-12-16T05:35:54.710Z,-0.5
2018-12-16T05:36:54.894Z,-0.44
2018-12-16T05:37:54.529Z,-0.44
2018-12-16T05:38:54.736Z,-0.5
2018-12-16T05:39:54.569Z,-0.5
2018-12-16T05:40:54.546Z,-0.44
2018-12-16T05:41:54.555Z,-0.5
2018-12-16T05:42:54.633Z,-0.5
2018-12-16T05:43:54.560Z,-0.5
2018-12-16T05:44:54.531Z,-0.5
2018-12-16T05:45:54.646Z,-0.5
2018-12-16T05:46:54.613Z,-0.5
2018-12-16T05:47:54.633Z,-0.5
2018-12-16T05:48:54.500Z,-0.5
2018-12-16T05:49:54.536Z,-0.5
2018-12-16T05:50:54.550Z,-0.5
2018-12-16T05:51:54.482Z,-0.5
2018-12-16T05:52:54.560Z,-0.5
2018-12-16T05:53:54.588Z,-0.5
2018-12-16T05:54:54.502Z,-0.56
2018-12-16T05:55:54.563Z,-0.5
2018-12-16T05:56:54.643Z,-0.5
2018-12-16T05:57:54.547Z,-0.56
2018-12-16T05:58:54.520Z,-0.56
2018-12-16T05:59:54.986Z,-0.56
2018-12-16T06:00:54.541Z,-0.56
2018-12-16T06:01:54.673Z,-0.62
2018-12-16T06:02:54.682Z,-0.56
2018-12-16T06:03:55.289Z,-0.56
2018-12-16T06:04:54.684Z,-0.56
2018-12-16T06:05:54.634Z,-0.62
2018-12-16T06:06:54.658Z,-0.62
2018-12-16T06:07:54.735Z,-0.69
2018-12-16T06:08:54.553Z,-0.69
2018-12-16T06:09:54.699Z,-0.69
2018-12-16T06:10:54.736Z,-0.69
2018-12-16T06:11:54.559Z,-0.69
2018-12-16T06:12:54.675Z,-0.75
2018-12-16T06:13:55.338Z,-0.75
2018-12-16T06:14:54.680Z,-0.75
2018-12-16T06:15:54.584Z,-0.75
2018-12-16T06:16:54.472Z,-0.69
2018-12-16T06:17:54.496Z,-0.69
2018-12-16T06:18:55.290Z,-0.69
2018-12-16T06:19:54.510Z,-0.69
2018-12-16T06:20:54.516Z,-0.69
2018-12-16T06:21:54.563Z,-0.69
2018-12-16T06:22:54.444Z,-0.69
2018-12-16T06:23:56.246Z,-0.75
2018-12-16T06:24:54.551Z,-0.75
2018-12-16T06:25:54.941Z,-0.75
2018-12-16T06:26:54.910Z,-0.75
2018-12-16T06:27:55.067Z,-0.75
2018-12-16T06:28:54.427Z,-0.69
2018-12-16T06:29:54.648Z,-0.75
2018-12-16T06:30:54.451Z,-0.69
2018-12-16T06:31:55.631Z,-0.75
2018-12-16T06:32:54.614Z,-0.69
2018-12-16T06:33:54.749Z,-0.69
2018-12-16T06:34:54.668Z,-0.69
2018-12-16T06:35:54.509Z,-0.75
2018-12-16T06:36:54.709Z,-0.75
2018-12-16T06:37:54.656Z,-0.75
2018-12-16T06:38:54.436Z,-0.69
2018-12-16T06:39:55.340Z,-0.75
2018-12-16T06:40:54.504Z,-0.69
2018-12-16T06:41:55.626Z,-0.75
2018-12-16T06:42:54.428Z,-0.75
2018-12-16T06:43:54.468Z,-0.75
2018-12-16T06:44:54.541Z,-0.75
2018-12-16T06:45:54.580Z,-0.81
2018-12-16T06:46:54.622Z,-0.75
2018-12-16T06:47:54.541Z,-0.75
2018-12-16T06:48:54.469Z,-0.69
2018-12-16T06:49:54.438Z,-0.69
2018-12-16T06:50:54.860Z,-0.69
2018-12-16T06:51:54.592Z,-0.69
2018-12-16T06:52:54.488Z,-0.69
2018-12-16T06:53:54.676Z,-0.69
2018-12-16T06:54:54.752Z,-0.62
2018-12-16T06:55:54.630Z,-0.62
2018-12-16T06:56:54.605Z,-0.62
2018-12-16T06:57:54.920Z,-0.62
2018-12-16T06:58:54.538Z,-0.56
2018-12-16T06:59:54.442Z,-0.56
2018-12-16T07:00:54.533Z,-0.56
2018-12-16T07:01:54.509Z,-0.62
2018-12-16T07:02:54.599Z,-0.56
2018-12-16T07:03:54.713Z,-0.56
2018-12-16T07:04:54.473Z,-0.56
2018-12-16T07:05:54.689Z,-0.56
2018-12-16T07:06:54.410Z,-0.56
2018-12-16T07:07:54.639Z,-0.56
2018-12-16T07:08:54.635Z,-0.5
2018-12-16T07:09:54.527Z,-0.5
2018-12-16T07:10:54.483Z,-0.44
2018-12-16T07:11:54.471Z,-0.44
2018-12-16T07:12:54.458Z,-0.44
2018-12-16T07:13:54.508Z,-0.44
2018-12-16T07:14:54.957Z,-0.44
2018-12-16T07:15:54.566Z,-0.44
2018-12-16T07:16:54.426Z,-0.44
2018-12-16T07:17:54.442Z,-0.44
2018-12-16T07:18:54.622Z,-0.37
2018-12-16T07:19:54.552Z,-0.44
2018-12-16T07:20:54.662Z,-0.37
2018-12-16T07:21:54.586Z,-0.44
2018-12-16T07:22:54.540Z,-0.37
2018-12-16T07:23:54.458Z,-0.44
2018-12-16T07:24:54.516Z,-0.44
2018-12-16T07:25:54.602Z,-0.44
2018-12-16T07:26:54.555Z,-0.44
2018-12-16T07:27:54.514Z,-0.44
2018-12-16T07:28:54.506Z,-0.44
2018-12-16T07:29:54.460Z,-0.5
2018-12-16T07:30:54.515Z,-0.5
2018-12-16T07:31:54.536Z,-0.5
2018-12-16T07:32:54.379Z,-0.5
2018-12-16T07:33:54.740Z,-0.5
2018-12-16T07:34:54.459Z,-0.5
2018-12-16T07:35:54.825Z,-0.5
2018-12-16T07:36:54.419Z,-0.5
2018-12-16T07:37:54.625Z,-0.5
2018-12-16T07:38:54.684Z,-0.5
2018-12-16T07:39:54.833Z,-0.5
2018-12-16T07:40:54.632Z,-0.5
2018-12-16T07:41:54.553Z,-0.5
2018-12-16T07:42:54.583Z,-0.5
2018-12-16T07:43:55.242Z,-0.5
2018-12-16T07:44:54.817Z,-0.5
2018-12-16T07:45:54.416Z,-0.56
2018-12-16T07:46:54.522Z,-0.5
2018-12-16T07:47:54.473Z,-0.5
2018-12-16T07:48:54.746Z,-0.5
2018-12-16T07:49:54.635Z,-0.5
2018-12-16T07:50:54.425Z,-0.5
2018-12-16T07:51:54.861Z,-0.56
2018-12-16T07:52:54.483Z,-0.5
2018-12-16T07:53:54.874Z,-0.5
2018-12-16T07:54:54.608Z,-0.5
2018-12-16T07:55:54.533Z,-0.5
2018-12-16T07:56:54.497Z,-0.44
2018-12-16T07:57:54.578Z,-0.37
2018-12-16T07:58:54.599Z,-0.37
2018-12-16T07:59:54.370Z,-0.37
2018-12-16T08:00:54.764Z,-0.37
2018-12-16T08:01:54.529Z,-0.37
2018-12-16T08:02:54.584Z,-0.37
2018-12-16T08:03:54.532Z,-0.31
2018-12-16T08:04:54.412Z,-0.37
2018-12-16T08:05:54.431Z,-0.37
2018-12-16T08:06:54.534Z,-0.31
2018-12-16T08:07:54.487Z,-0.37
2018-12-16T08:08:54.397Z,-0.31
2018-12-16T08:09:54.403Z,-0.31
2018-12-16T08:10:54.529Z,-0.31
2018-12-16T08:11:54.387Z,-0.31
2018-12-16T08:12:54.393Z,-0.31
2018-12-16T08:13:54.637Z,-0.31
2018-12-16T08:14:54.385Z,-0.25
2018-12-16T08:15:54.328Z,-0.25
2018-12-16T08:16:54.453Z,-0.25
2018-12-16T08:17:54.647Z,-0.25
2018-12-16T08:18:54.281Z,-0.25
2018-12-16T08:19:54.341Z,-0.31
2018-12-16T08:20:54.346Z,-0.25
2018-12-16T08:21:54.559Z,-0.31
2018-12-16T08:22:54.429Z,-0.25
2018-12-16T08:23:55.134Z,-0.31
2018-12-16T08:24:54.513Z,-0.25
2018-12-16T08:25:54.359Z,-0.31
2018-12-16T08:26:55.105Z,-0.25
2018-12-16T08:27:54.460Z,-0.31
2018-12-16T08:28:54.410Z,-0.31
2018-12-16T08:29:54.591Z,-0.31
2018-12-16T08:30:54.327Z,-0.25
2018-12-16T08:31:54.545Z,-0.31
2018-12-16T08:32:54.342Z,-0.31
2018-12-16T08:33:54.368Z,-0.31
2018-12-16T08:34:54.355Z,-0.31
2018-12-16T08:35:54.503Z,-0.31
2018-12-16T08:36:54.313Z,-0.31
2018-12-16T08:37:54.366Z,-0.31
2018-12-16T08:38:54.568Z,-0.31
2018-12-16T08:39:54.413Z,-0.31
2018-12-16T08:40:54.755Z,-0.31
2018-12-16T08:41:54.419Z,-0.31
2018-12-16T08:42:54.368Z,-0.37
2018-12-16T08:43:54.471Z,-0.37
2018-12-16T08:44:54.405Z,-0.31
2018-12-16T08:45:54.469Z,-0.37
2018-12-16T08:46:54.343Z,-0.31
2018-12-16T08:47:54.493Z,-0.37
2018-12-16T08:48:55.076Z,-0.31
2018-12-16T08:49:54.937Z,-0.31
2018-12-16T08:50:54.378Z,-0.31
2018-12-16T08:51:55.103Z,-0.31
2018-12-16T08:52:55.398Z,-0.31
2018-12-16T08:53:54.551Z,-0.31
2018-12-16T08:54:54.620Z,-0.31
2018-12-16T08:55:54.508Z,-0.31
2018-12-16T08:56:54.919Z,-0.31
2018-12-16T08:57:54.318Z,-0.31
2018-12-16T08:58:54.347Z,-0.25
2018-12-16T08:59:54.305Z,-0.25
2018-12-16T09:00:54.295Z,-0.25
2018-12-16T09:01:54.247Z,-0.25
2018-12-16T09:02:54.256Z,-0.19
2018-12-16T09:03:54.284Z,-0.19
2018-12-16T09:04:54.254Z,-0.19
2018-12-16T09:05:54.263Z,-0.19
2018-12-16T09:06:54.251Z,-0.19
2018-12-16T09:07:54.359Z,-0.19
2018-12-16T09:08:54.284Z,-0.19
2018-12-16T09:09:54.345Z,-0.19
2018-12-16T09:10:54.465Z,-0.19
2018-12-16T09:11:54.338Z,-0.19
2018-12-16T09:12:54.277Z,-0.19
2018-12-16T09:13:54.673Z,-0.19
2018-12-16T09:14:54.257Z,-0.19
2018-12-16T09:15:55.040Z,-0.19
2018-12-16T09:16:54.578Z,-0.25
2018-12-16T09:17:54.328Z,-0.19
2018-12-16T09:18:54.197Z,-0.19
2018-12-16T09:19:54.339Z,-0.19
2018-12-16T09:20:54.332Z,-0.19
2018-12-16T09:21:54.600Z,-0.19
2018-12-16T09:22:54.708Z,-0.13
2018-12-16T09:23:54.392Z,-0.19
2018-12-16T09:24:54.423Z,-0.13
2018-12-16T09:25:54.351Z,-0.19
2018-12-16T09:26:54.218Z,-0.19
2018-12-16T09:27:54.370Z,-0.13
2018-12-16T09:28:54.285Z,-0.13
2018-12-16T09:29:54.352Z,-0.19
2018-12-16T09:30:58.547Z,-0.13
2018-12-16T09:31:54.426Z,-0.13
2018-12-16T09:32:55.029Z,-0.06
2018-12-16T09:33:54.252Z,-0.06
2018-12-16T09:34:54.294Z,-0.06
2018-12-16T09:35:54.263Z,-0.06
2018-12-16T09:36:54.434Z,0
2018-12-16T09:37:54.651Z,-0.06
2018-12-16T09:38:54.259Z,-0.06
2018-12-16T09:39:54.195Z,-0.06
2018-12-16T09:40:54.220Z,-0.06
2018-12-16T09:41:54.264Z,-0.06
2018-12-16T09:42:54.168Z,-0.06
2018-12-16T09:43:54.168Z,-0.06
2018-12-16T09:44:54.259Z,-0.06
2018-12-16T09:45:54.238Z,-0.06
2018-12-16T09:46:54.300Z,-0.06
2018-12-16T09:47:54.527Z,-0.06
2018-12-16T09:48:54.212Z,-0.06
2018-12-16T09:49:54.578Z,-0.06
2018-12-16T09:50:54.398Z,-0.06
2018-12-16T09:51:54.189Z,-0.06
2018-12-16T09:52:54.400Z,0
2018-12-16T09:53:54.312Z,-0.06
2018-12-16T09:54:54.209Z,-0.06
2018-12-16T09:55:54.572Z,-0.06
2018-12-16T09:56:54.203Z,0
2018-12-16T09:57:54.328Z,0
2018-12-16T09:58:54.230Z,0
2018-12-16T09:59:54.330Z,0
2018-12-16T10:00:54.576Z,0
2018-12-16T10:01:54.301Z,0
2018-12-16T10:02:54.309Z,0
2018-12-16T10:03:54.147Z,0.06
2018-12-16T10:04:54.413Z,0.06
2018-12-16T10:05:54.649Z,0.06
2018-12-16T10:06:54.384Z,0.06
2018-12-16T10:07:54.350Z,0.06
2018-12-16T10:08:54.368Z,0.06
2018-12-16T10:09:54.348Z,0.06
2018-12-16T10:10:54.716Z,0.13
2018-12-16T10:11:54.174Z,0.13
2018-12-16T10:12:54.367Z,0.19
2018-12-16T10:13:54.705Z,0.19
2018-12-16T10:14:54.285Z,0.19
2018-12-16T10:15:54.344Z,0.19
2018-12-16T10:16:54.173Z,0.25
2018-12-16T10:17:54.189Z,0.25
2018-12-16T10:18:54.286Z,0.25
2018-12-16T10:19:54.171Z,0.25
2018-12-16T10:20:54.289Z,0.25
2018-12-16T10:21:54.997Z,0.31
2018-12-16T10:22:54.277Z,0.31
2018-12-16T10:23:54.141Z,0.31
2018-12-16T10:24:54.973Z,0.31
2018-12-16T10:25:54.192Z,0.31
2018-12-16T10:26:54.301Z,0.31
2018-12-16T10:27:54.134Z,0.37
2018-12-16T10:28:54.425Z,0.37
2018-12-16T10:29:54.153Z,0.44
2018-12-16T10:30:54.248Z,0.44
2018-12-16T10:31:54.382Z,0.37
2018-12-16T10:32:54.138Z,0.37
2018-12-16T10:33:54.294Z,0.44
2018-12-16T10:34:54.182Z,0.37
2018-12-16T10:35:54.361Z,0.44
2018-12-16T10:36:54.319Z,0.44
2018-12-16T10:37:54.253Z,0.37
2018-12-16T10:38:57.440Z,0.37
2018-12-16T10:39:54.243Z,0.44
2018-12-16T10:40:57.006Z,0.44
2018-12-16T10:41:55.242Z,0.44
2018-12-16T10:42:54.364Z,0.37
2018-12-16T10:43:54.506Z,0.44
2018-12-16T10:44:54.170Z,0.44
2018-12-16T10:45:54.415Z,0.44
2018-12-16T10:46:54.257Z,0.44
2018-12-16T10:47:54.209Z,0.44
2018-12-16T10:48:54.198Z,0.44
2018-12-16T10:49:54.277Z,0.5
2018-12-16T10:50:54.247Z,0.5
2018-12-16T10:51:54.267Z,0.5
2018-12-16T10:52:54.171Z,0.5
2018-12-16T10:53:54.783Z,0.56
2018-12-16T10:54:59.052Z,0.5
2018-12-16T10:55:54.164Z,0.56
2018-12-16T10:56:55.919Z,0.56
2018-12-16T10:57:54.965Z,0.62
2018-12-16T10:58:54.272Z,0.56
2018-12-16T10:59:54.301Z,0.62
2018-12-16T11:00:54.183Z,0.62
2018-12-16T11:01:54.374Z,0.62
2018-12-16T11:02:59.562Z,0.62
2018-12-16T11:03:59.168Z,0.62
2018-12-16T11:04:57.958Z,0.62
2018-12-16T11:05:58.629Z,0.69
2018-12-16T11:06:58.118Z,0.62
2018-12-16T11:07:56.226Z,0.62
2018-12-16T11:08:56.467Z,0.69
2018-12-16T11:09:54.738Z,0.69
2018-12-16T11:10:55.274Z,0.69
2018-12-16T11:11:55.060Z,0.69
2018-12-16T11:12:57.637Z,0.62
2018-12-16T11:13:59.675Z,0.69
2018-12-16T11:14:59.251Z,0.69
2018-12-16T11:16:00.224Z,0.69
2018-12-16T11:16:56.609Z,0.62
2018-12-16T11:17:55.428Z,0.69
2018-12-16T11:18:56.533Z,0.69
2018-12-16T11:19:54.797Z,0.69
2018-12-16T11:20:56.899Z,0.69
2018-12-16T11:21:56.320Z,0.69
2018-12-16T11:22:59.181Z,0.69
2018-12-16T11:23:56.715Z,0.69
2018-12-16T11:24:57.484Z,0.69
2018-12-16T11:25:56.443Z,0.69
2018-12-16T11:26:57.944Z,0.69
2018-12-16T11:28:59.948Z,0.69
2018-12-16T11:29:57.600Z,0.75
2018-12-16T11:30:58.274Z,0.69
2018-12-16T11:31:56.405Z,0.75
2018-12-16T11:32:57.258Z,0.69
2018-12-16T11:33:55.933Z,0.75
2018-12-16T11:34:58.663Z,0.75
2018-12-16T11:35:56.375Z,0.69
2018-12-16T11:36:57.619Z,0.75
2018-12-16T11:38:02.108Z,0.75
2018-12-16T11:38:56.778Z,0.75
2018-12-16T11:39:58.088Z,0.75
2018-12-16T11:40:56.570Z,0.75
2018-12-16T11:41:57.042Z,0.75
2018-12-16T11:42:56.680Z,0.81
2018-12-16T11:43:54.765Z,0.81
2018-12-16T11:44:56.899Z,0.81
2018-12-16T11:45:57.069Z,0.81
2018-12-16T11:46:56.250Z,0.81
2018-12-16T11:47:59.410Z,0.81
2018-12-16T11:48:59.122Z,0.88
2018-12-16T11:49:56.560Z,0.88
2018-12-16T11:50:56.530Z,0.88
2018-12-16T11:51:57.873Z,0.88
2018-12-16T11:52:56.574Z,0.94
2018-12-16T11:53:56.871Z,0.88
2018-12-16T11:54:57.609Z,0.94
2018-12-16T11:55:56.623Z,0.94
2018-12-16T11:56:58.149Z,1
2018-12-16T11:57:57.430Z,0.94
2018-12-16T11:58:56.795Z,1
2018-12-16T11:59:57.956Z,0.94
2018-12-16T12:01:17.912Z,1
2018-12-16T12:04:02.277Z,1
2018-12-16T12:04:57.525Z,1
2018-12-16T12:05:57.958Z,1
2018-12-16T12:06:54.481Z,1
2018-12-16T12:07:54.254Z,1
2018-12-16T12:08:54.213Z,1.06
2018-12-16T12:09:54.454Z,1
2018-12-16T12:10:54.151Z,1.06
2018-12-16T12:11:54.126Z,1
2018-12-16T12:12:54.027Z,1.06
2018-12-16T12:13:54.155Z,1.06
2018-12-16T12:14:53.962Z,1.12
2018-12-16T12:15:54.003Z,1.06
2018-12-16T12:16:54.495Z,1.06
2018-12-16T12:17:54.027Z,1.06
2018-12-16T12:18:53.932Z,1.06
2018-12-16T12:19:54.074Z,1.06
2018-12-16T12:20:54.000Z,1.06
2018-12-16T12:21:54.222Z,1.06
2018-12-16T12:22:53.958Z,1.12
2018-12-16T12:23:54.348Z,1.06
2018-12-16T12:24:54.089Z,1.12
2018-12-16T12:25:54.111Z,1.12
2018-12-16T12:26:54.142Z,1.12
2018-12-16T12:27:54.382Z,1.12
2018-12-16T12:28:54.038Z,1.12
2018-12-16T12:29:54.161Z,1.12
2018-12-16T12:30:54.201Z,1.19
2018-12-16T12:31:54.167Z,1.19
2018-12-16T12:32:54.017Z,1.19
2018-12-16T12:33:54.442Z,1.12
2018-12-16T12:34:54.108Z,1.12
2018-12-16T12:35:54.306Z,1.12
2018-12-16T12:36:54.268Z,1.12
2018-12-16T12:37:54.008Z,1.12
2018-12-16T12:38:54.016Z,1.12
2018-12-16T12:39:54.286Z,1.12
2018-12-16T12:40:54.867Z,1.12
2018-12-16T12:41:54.756Z,1.12
2018-12-16T12:42:54.046Z,1.12
2018-12-16T12:43:54.002Z,1.12
2018-12-16T12:44:54.041Z,1.12
2018-12-16T12:45:54.234Z,1.19
2018-12-16T12:46:53.941Z,1.12
2018-12-16T12:47:54.105Z,1.19
2018-12-16T12:48:54.133Z,1.19
2018-12-16T12:49:53.957Z,1.19
2018-12-16T12:50:53.946Z,1.19
2018-12-16T12:51:54.122Z,1.25
2018-12-16T12:52:53.980Z,1.19
2018-12-16T12:53:54.135Z,1.25
2018-12-16T12:54:54.176Z,1.25
2018-12-16T12:55:53.935Z,1.25
2018-12-16T12:56:53.889Z,1.25
2018-12-16T12:57:53.948Z,1.19
2018-12-16T12:58:54.102Z,1.19
2018-12-16T12:59:53.908Z,1.25
2018-12-16T13:00:54.016Z,1.19
2018-12-16T13:01:53.986Z,1.25
2018-12-16T13:02:54.118Z,1.19
2018-12-16T13:03:54.188Z,1.19
2018-12-16T13:04:54.126Z,1.19
2018-12-16T13:05:54.503Z,1.19
2018-12-16T13:06:54.076Z,1.25
2018-12-16T13:07:54.170Z,1.25
2018-12-16T13:08:54.144Z,1.25
2018-12-16T13:09:54.256Z,1.25
2018-12-16T13:10:53.947Z,1.25
2018-12-16T13:11:54.280Z,1.31
2018-12-16T13:12:54.273Z,1.31
2018-12-16T13:13:54.162Z,1.31
2018-12-16T13:14:54.048Z,1.31
2018-12-16T13:16:03.624Z,1.31
2018-12-16T13:16:54.116Z,1.31
2018-12-16T13:17:54.190Z,1.31
2018-12-16T13:18:54.002Z,1.37
2018-12-16T13:19:54.071Z,1.37
2018-12-16T13:20:54.007Z,1.37
2018-12-16T13:21:53.934Z,1.37
2018-12-16T13:22:53.942Z,1.31
2018-12-16T13:23:54.253Z,1.37